Time;durP1;ratioP1;P1;durP2;ratioP2;P2;SDS_P1;SDS_P2;PMS_P1;PMS_P2;Temp;Humidity;BMP_temperature;BMP_pressure;BME280_temperature;BME280_humidity;BME280_pressure;Samples;Min_cycle;Max_cycle;Signal;HPM_P1;HPM_P2
2023/07/21 00:00:31;;;;;;;1.77;0.93;;;15.80;99.90;;;;;;5081341;28;20196;-86
2023/07/21 00:03:04;;;;;;;2.03;0.85;;;15.90;99.90;;;;;;5073793;28;20207;-88
2023/07/21 00:05:35;;;;;;;1.80;0.80;;;16.10;99.90;;;;;;5080366;28;20199;-89
2023/07/21 00:08:07;;;;;;;1.50;0.75;;;16.10;99.90;;;;;;5082772;28;20188;-88
2023/07/21 00:10:39;;;;;;;2.97;0.65;;;16.20;99.90;;;;;;5072544;28;20673;-88
2023/07/21 00:13:11;;;;;;;3.33;1.05;;;16.20;99.90;;;;;;5076010;28;20566;-87
2023/07/21 00:15:45;;;;;;;6.00;0.80;;;16.20;99.90;;;;;;5085564;28;20698;-87
2023/07/21 00:18:19;;;;;;;4.45;0.73;;;16.30;99.90;;;;;;5072747;28;20215;-87
2023/07/21 00:20:50;;;;;;;2.85;1.00;;;16.40;99.90;;;;;;5079837;28;20198;-87
2023/07/21 00:23:22;;;;;;;3.05;0.85;;;16.50;99.90;;;;;;5085022;28;20659;-86
2023/07/21 00:25:54;;;;;;;5.15;0.95;;;16.50;99.90;;;;;;5073081;28;20649;-87
2023/07/21 00:28:26;;;;;;;4.35;1.02;;;16.50;99.90;;;;;;5073809;28;20206;-86
2023/07/21 00:30:57;;;;;;;2.63;0.90;;;16.60;99.90;;;;;;5094073;28;20195;-88
2023/07/21 00:33:32;;;;;;;3.88;0.90;;;16.60;99.90;;;;;;5073060;28;20550;-89
2023/07/21 00:36:04;;;;;;;3.80;0.80;;;16.60;99.90;;;;;;5072827;28;20195;-88
2023/07/21 00:38:35;;;;;;;1.75;0.70;;;16.70;99.90;;;;;;5073548;28;20287;-86
2023/07/21 00:41:06;;;;;;;5.18;1.02;;;16.70;99.90;;;;;;5073054;28;20281;-87
2023/07/21 00:43:39;;;;;;;2.53;0.95;;;16.70;99.90;;;;;;5073468;28;20196;-88
2023/07/21 00:46:12;;;;;;;2.65;0.68;;;16.70;99.90;;;;;;5076128;28;20196;-88
2023/07/21 00:48:47;;;;;;;1.10;0.70;;;16.80;99.90;;;;;;5072673;28;20662;-87
2023/07/21 00:51:20;;;;;;;1.20;0.60;;;16.90;99.90;;;;;;5091197;28;20201;-87
2023/07/21 00:53:53;;;;;;;1.77;0.80;;;17.00;99.90;;;;;;5092778;28;20230;-86
2023/07/21 00:56:24;;;;;;;1.50;0.80;;;17.10;99.90;;;;;;5073795;28;20655;-85
2023/07/21 00:58:58;;;;;;;2.00;0.95;;;17.20;99.90;;;;;;5072774;28;20685;-86
2023/07/21 01:01:29;;;;;;;3.47;0.90;;;17.40;99.90;;;;;;5093790;28;20198;-88
2023/07/21 01:04:03;;;;;;;4.03;1.10;;;17.40;99.90;;;;;;5076093;28;20196;-86
2023/07/21 01:06:36;;;;;;;4.45;1.20;;;17.60;99.90;;;;;;5074153;28;20192;-86
2023/07/21 01:09:12;;;;;;;2.58;1.23;;;17.60;99.90;;;;;;5090227;28;20195;-84
2023/07/21 01:11:45;;;;;;;5.50;2.00;;;17.50;99.90;;;;;;5076980;28;20263;-85
2023/07/21 01:14:19;;;;;;;7.38;1.33;;;17.50;99.90;;;;;;5086585;28;20708;-87
2023/07/21 01:16:52;;;;;;;2.80;1.25;;;17.50;99.90;;;;;;5084053;28;20212;-87
2023/07/21 01:19:26;;;;;;;5.75;1.33;;;17.60;99.90;;;;;;5073891;28;20294;-85
2023/07/21 01:22:03;;;;;;;1.35;1.00;;;17.70;99.90;;;;;;5072619;28;20193;-87
2023/07/21 01:24:41;;;;;;;1.73;0.90;;;17.70;99.90;;;;;;5072019;28;20191;-88
2023/07/21 01:27:16;;;;;;;3.22;0.70;;;17.70;99.90;;;;;;5072693;28;20188;-87
2023/07/21 01:29:48;;;;;;;3.38;0.80;;;17.60;99.90;;;;;;5086017;28;20221;-89
2023/07/21 01:32:21;;;;;;;1.50;0.70;;;17.60;99.90;;;;;;5082061;28;20204;-88
2023/07/21 01:34:56;;;;;;;1.63;0.63;;;17.50;99.90;;;;;;5072854;28;20246;-90
2023/07/21 01:37:29;;;;;;;1.30;0.88;;;17.40;99.90;;;;;;5078499;28;20198;-89
2023/07/21 01:40:02;;;;;;;2.00;0.80;;;17.50;99.90;;;;;;5084847;28;20190;-88
2023/07/21 01:42:35;;;;;;;3.08;1.00;;;17.70;99.90;;;;;;5101229;28;20285;-87
2023/07/21 01:45:07;;;;;;;5.70;1.10;;;17.90;99.90;;;;;;5112819;28;20600;-85
2023/07/21 01:47:39;;;;;;;1.98;0.88;;;18.10;99.90;;;;;;5094286;28;20650;-85
2023/07/21 01:50:13;;;;;;;1.73;0.90;;;18.30;99.90;;;;;;5083727;28;20195;-86
2023/07/21 01:52:47;;;;;;;3.50;0.90;;;18.30;99.90;;;;;;5079107;28;20196;-86
2023/07/21 01:55:22;;;;;;;5.15;1.15;;;18.30;99.90;;;;;;5079782;28;20276;-86
2023/07/21 01:58:01;;;;;;;1.63;0.68;;;18.30;99.90;;;;;;5074509;28;20191;-88
2023/07/21 02:00:35;;;;;;;5.85;2.78;;;18.40;99.90;;;;;;5083320;28;20200;-90
2023/07/21 02:03:08;;;;;;;2.15;1.10;;;18.40;99.90;;;;;;5082180;28;20204;-88
2023/07/21 02:05:39;;;;;;;6.05;1.67;;;18.60;99.90;;;;;;5076932;28;20302;-87
2023/07/21 02:08:10;;;;;;;1.35;0.60;;;18.70;99.90;;;;;;5085596;28;20252;-84
2023/07/21 02:10:42;;;;;;;0.98;0.77;;;18.60;99.90;;;;;;5087416;28;20196;-87
2023/07/21 02:13:16;;;;;;;3.03;0.90;;;18.50;99.90;;;;;;5090765;28;20250;-88
2023/07/21 02:15:48;;;;;;;4.45;1.20;;;18.40;99.90;;;;;;5081219;28;20195;-86
2023/07/21 02:18:19;;;;;;;1.27;0.60;;;18.50;99.90;;;;;;5071516;28;20196;-88
2023/07/21 02:20:51;;;;;;;1.23;0.70;;;18.50;99.90;;;;;;5075987;28;20192;-89
2023/07/21 02:23:25;;;;;;;0.98;0.57;;;18.70;98.80;;;;;;5080760;28;20310;-87
2023/07/21 02:25:57;;;;;;;3.25;0.70;;;18.60;97.40;;;;;;5075850;28;20204;-89
2023/07/21 02:28:32;;;;;;;1.15;0.32;;;18.70;97.30;;;;;;5080855;28;20212;-88
2023/07/21 02:31:06;;;;;;;1.00;0.52;;;18.80;96.30;;;;;;5081817;28;20212;-86
2023/07/21 02:33:38;;;;;;;2.03;1.00;;;18.90;94.80;;;;;;5084362;28;20215;-88
2023/07/21 02:36:10;;;;;;;2.97;1.48;;;19.00;93.80;;;;;;5078731;28;20195;-88
2023/07/21 02:38:42;;;;;;;4.53;1.80;;;18.90;93.00;;;;;;5100119;28;20309;-87
2023/07/21 02:41:15;;;;;;;1.52;0.90;;;19.00;92.50;;;;;;5088660;28;20211;-87
2023/07/21 02:43:48;;;;;;;3.95;0.82;;;19.00;91.30;;;;;;5090790;28;20201;-86
2023/07/21 02:46:19;;;;;;;1.65;0.57;;;18.90;91.40;;;;;;5090151;28;20655;-86
2023/07/21 02:48:51;;;;;;;0.65;0.30;;;18.90;90.30;;;;;;5088939;28;20221;-88
2023/07/21 02:51:22;;;;;;;1.48;0.50;;;19.00;91.50;;;;;;5070459;28;20558;-88
2023/07/21 02:53:53;;;;;;;1.13;0.60;;;19.10;91.70;;;;;;5070903;28;20227;-88
2023/07/21 02:56:25;;;;;;;0.95;0.50;;;19.30;90.80;;;;;;5071032;28;20862;-87
2023/07/21 02:59:00;;;;;;;2.17;0.50;;;19.50;82.30;;;;;;5070823;28;20218;-86
2023/07/21 03:01:32;;;;;;;1.38;0.90;;;19.50;76.20;;;;;;5071506;28;20190;-87
2023/07/21 03:04:05;;;;;;;0.40;0.30;;;19.40;73.10;;;;;;5071462;28;20667;-87
2023/07/21 03:06:36;;;;;;;1.85;0.30;;;19.30;70.20;;;;;;5090998;28;20574;-87
2023/07/21 03:09:08;;;;;;;0.90;0.60;;;19.50;71.30;;;;;;5082000;28;20243;-88
2023/07/21 03:11:39;;;;;;;2.53;0.70;;;19.60;71.20;;;;;;5078413;28;20789;-87
2023/07/21 03:14:14;;;;;;;0.73;0.40;;;19.70;71.90;;;;;;5113153;28;20206;-88
2023/07/21 03:16:52;;;;;;;0.20;0.20;;;19.60;69.50;;;;;;5072305;28;20180;-89
2023/07/21 03:19:25;;;;;;;1.17;0.60;;;19.30;69.00;;;;;;5071274;28;20204;-87
2023/07/21 03:21:57;;;;;;;4.20;0.77;;;19.20;70.20;;;;;;5071305;28;20579;-88
2023/07/21 03:24:29;;;;;;;0.50;0.45;;;19.10;70.80;;;;;;5071100;28;20571;-89
2023/07/21 03:27:00;;;;;;;4.13;0.73;;;19.00;71.80;;;;;;5076497;28;20222;-89
2023/07/21 03:29:35;;;;;;;1.98;0.50;;;19.00;74.80;;;;;;5071963;28;20279;-90
2023/07/21 03:32:06;;;;;;;1.75;0.50;;;19.20;75.00;;;;;;5071320;28;20199;-88
2023/07/21 03:34:37;;;;;;;1.38;0.52;;;19.10;74.20;;;;;;5074435;28;20224;-89
2023/07/21 03:37:09;;;;;;;1.17;0.47;;;19.10;73.70;;;;;;5092532;28;20204;-88
2023/07/21 03:39:42;;;;;;;1.05;0.40;;;19.00;71.80;;;;;;5083850;28;20188;-87
2023/07/21 03:42:14;;;;;;;2.25;0.60;;;18.90;72.00;;;;;;5089504;28;20184;-86
2023/07/21 03:44:52;;;;;;;3.17;0.52;;;19.00;73.70;;;;;;5075522;28;20203;-87
2023/07/21 03:47:23;;;;;;;2.33;0.90;;;19.00;75.30;;;;;;5084677;28;20187;-89
2023/07/21 03:49:54;;;;;;;0.85;0.60;;;19.00;72.00;;;;;;5095373;28;20184;-88
2023/07/21 03:52:26;;;;;;;1.48;0.65;;;19.10;73.70;;;;;;5101801;28;20278;-88
2023/07/21 03:54:57;;;;;;;1.67;0.75;;;19.20;74.10;;;;;;5073540;28;20232;-87
2023/07/21 03:57:28;;;;;;;0.57;0.50;;;19.20;73.60;;;;;;5077108;28;20200;-86
2023/07/21 04:00:07;;;;;;;0.98;0.40;;;19.30;73.80;;;;;;5079828;28;20206;-88
2023/07/21 04:02:40;;;;;;;3.22;0.50;;;19.10;72.60;;;;;;5083109;28;20256;-88
2023/07/21 04:05:11;;;;;;;0.70;0.32;;;19.10;71.90;;;;;;5103805;28;20183;-87
2023/07/21 04:07:42;;;;;;;0.82;0.30;;;19.20;72.20;;;;;;5092870;28;20191;-87
2023/07/21 04:10:14;;;;;;;1.55;0.50;;;19.30;71.20;;;;;;5077958;28;20560;-87
2023/07/21 04:12:49;;;;;;;0.82;0.30;;;19.30;69.90;;;;;;5079483;28;20718;-87
2023/07/21 04:15:22;;;;;;;1.63;0.77;;;19.30;70.30;;;;;;5093778;28;20216;-85
2023/07/21 04:17:54;;;;;;;2.95;1.10;;;19.30;68.70;;;;;;5084549;28;20216;-87
2023/07/21 04:20:25;;;;;;;1.58;0.43;;;19.20;69.50;;;;;;5079977;28;20188;-88
2023/07/21 04:22:56;;;;;;;2.08;0.40;;;19.30;71.50;;;;;;5084964;28;20203;-87
2023/07/21 04:25:27;;;;;;;1.80;0.50;;;19.30;70.10;;;;;;5086717;28;20242;-86
2023/07/21 04:27:58;;;;;;;0.55;0.50;;;19.40;68.60;;;;;;5077678;28;20291;-87
2023/07/21 04:30:32;;;;;;;2.33;1.05;;;19.40;67.20;;;;;;5088985;28;20265;-86
2023/07/21 04:33:03;;;;;;;2.30;0.52;;;19.50;65.40;;;;;;5073747;28;20208;-88
2023/07/21 04:35:35;;;;;;;1.98;0.63;;;19.50;75.60;;;;;;5075166;28;20208;-87
2023/07/21 04:38:06;;;;;;;1.27;0.73;;;19.50;89.50;;;;;;5090514;28;20195;-87
2023/07/21 04:40:38;;;;;;;3.40;0.60;;;19.50;92.60;;;;;;5080201;28;20196;-87
2023/07/21 04:43:09;;;;;;;3.75;0.73;;;19.60;94.10;;;;;;5077853;28;20206;-87
2023/07/21 04:45:45;;;;;;;3.33;0.68;;;19.60;95.20;;;;;;5081165;28;20214;-88
2023/07/21 04:48:16;;;;;;;1.88;0.50;;;19.50;95.40;;;;;;5079486;28;20194;-87
2023/07/21 04:50:56;;;;;;;2.45;0.60;;;19.50;95.90;;;;;;5088561;28;20199;-87
2023/07/21 04:53:28;;;;;;;1.65;0.50;;;19.30;96.70;;;;;;5074805;28;20199;-88
2023/07/21 04:56:00;;;;;;;2.45;0.60;;;19.20;98.20;;;;;;5084558;28;20223;-91
2023/07/21 04:58:31;;;;;;;2.20;0.60;;;19.00;99.50;;;;;;5078857;28;20199;-88
2023/07/21 05:01:06;;;;;;;0.75;0.40;;;18.90;99.90;;;;;;5082734;28;20248;-85
2023/07/21 05:03:38;;;;;;;0.85;0.50;;;18.80;99.90;;;;;;5100349;28;20206;-87
2023/07/21 05:06:09;;;;;;;1.17;0.57;;;18.70;99.90;;;;;;5115936;28;20194;-88
2023/07/21 05:08:41;;;;;;;1.67;0.50;;;18.60;99.90;;;;;;5106196;28;20222;-89
2023/07/21 05:11:12;;;;;;;3.53;0.60;;;18.50;99.90;;;;;;5101907;28;20195;-88
2023/07/21 05:13:45;;;;;;;1.30;0.60;;;18.50;99.90;;;;;;5097618;28;20191;-87
2023/07/21 05:16:18;;;;;;;1.42;0.50;;;18.40;99.90;;;;;;5080560;28;20228;-87
2023/07/21 05:18:50;;;;;;;2.47;0.50;;;18.30;99.90;;;;;;5088271;28;20393;-86
2023/07/21 05:21:21;;;;;;;1.73;0.82;;;18.30;99.90;;;;;;5112649;27;20208;-86
2023/07/21 05:23:52;;;;;;;3.05;0.60;;;18.30;99.90;;;;;;5083129;28;20188;-85
2023/07/21 05:26:23;;;;;;;3.28;0.60;;;18.20;99.90;;;;;;5071734;28;20192;-86
2023/07/21 05:28:55;;;;;;;4.30;0.77;;;18.10;99.90;;;;;;5099550;28;20218;-87
2023/07/21 05:31:28;;;;;;;2.28;0.77;;;18.10;99.90;;;;;;5103827;28;20220;-85
2023/07/21 05:33:59;;;;;;;3.92;1.02;;;18.00;99.90;;;;;;5102394;27;20192;-85
2023/07/21 05:36:30;;;;;;;3.08;0.70;;;18.00;99.90;;;;;;5086791;28;20210;-84
2023/07/21 05:39:02;;;;;;;2.35;0.60;;;18.00;99.90;;;;;;5114280;28;20274;-85
2023/07/21 05:41:33;;;;;;;2.33;0.80;;;18.00;99.90;;;;;;5110818;28;20199;-85
2023/07/21 05:44:04;;;;;;;1.90;0.70;;;18.00;99.90;;;;;;5087390;28;20555;-87
2023/07/21 05:46:38;;;;;;;1.52;0.50;;;18.00;99.90;;;;;;5093350;28;20228;-85
2023/07/21 05:49:10;;;;;;;2.15;0.52;;;17.90;99.90;;;;;;5091667;28;20183;-86
2023/07/21 05:51:41;;;;;;;2.88;0.80;;;17.90;99.90;;;;;;5077885;28;20293;-88
2023/07/21 05:54:12;;;;;;;1.77;0.60;;;17.90;99.90;;;;;;5070249;28;20236;-85
2023/07/21 05:56:43;;;;;;;2.35;0.47;;;17.90;99.90;;;;;;5096650;28;20217;-86
2023/07/21 05:59:14;;;;;;;3.13;0.90;;;17.90;99.90;;;;;;5108422;28;20186;-84
2023/07/21 06:01:47;;;;;;;3.13;0.60;;;17.90;99.90;;;;;;5084439;28;20195;-85
2023/07/21 06:04:20;;;;;;;1.83;0.40;;;17.90;99.90;;;;;;5078165;28;20196;-87
2023/07/21 06:06:51;;;;;;;2.90;0.80;;;17.90;99.90;;;;;;5070473;28;20211;-87
2023/07/21 06:09:22;;;;;;;2.65;0.60;;;17.90;99.90;;;;;;5071158;28;20207;-87
2023/07/21 06:11:53;;;;;;;2.22;0.60;;;17.90;99.90;;;;;;5070798;28;20202;-86
2023/07/21 06:14:24;;;;;;;2.13;0.57;;;17.90;99.90;;;;;;5070755;28;20218;-85
2023/07/21 06:16:57;;;;;;;3.25;0.60;;;17.80;99.90;;;;;;5081608;28;20200;-85
2023/07/21 06:19:31;;;;;;;1.38;0.45;;;17.80;99.90;;;;;;5071842;28;20261;-86
2023/07/21 06:22:02;;;;;;;1.30;0.60;;;17.70;99.90;;;;;;5106410;28;20267;-86
2023/07/21 06:24:33;;;;;;;2.08;0.63;;;17.70;99.90;;;;;;5098839;28;20282;-85
2023/07/21 06:27:04;;;;;;;2.75;1.00;;;17.70;99.90;;;;;;5090258;28;20271;-87
2023/07/21 06:29:35;;;;;;;2.08;0.95;;;17.60;99.90;;;;;;5092304;28;20257;-86
2023/07/21 06:32:09;;;;;;;2.17;0.85;;;17.60;99.90;;;;;;5084845;28;20191;-84
2023/07/21 06:34:41;;;;;;;3.88;0.60;;;17.50;99.90;;;;;;5101132;28;20198;-86
2023/07/21 06:37:12;;;;;;;1.20;0.50;;;17.40;99.90;;;;;;5074472;28;20212;-85
2023/07/21 06:39:43;;;;;;;1.60;0.60;;;17.50;99.90;;;;;;5092494;28;20190;-86
2023/07/21 06:42:14;;;;;;;1.52;0.63;;;17.50;99.90;;;;;;5108344;28;20187;-86
2023/07/21 06:44:45;;;;;;;1.10;0.60;;;17.50;99.90;;;;;;5086003;28;20223;-86
2023/07/21 06:47:18;;;;;;;1.20;0.68;;;17.50;99.90;;;;;;5097409;28;20215;-86
2023/07/21 06:49:54;;;;;;;2.45;0.60;;;17.60;99.90;;;;;;5087881;28;20286;-86
2023/07/21 06:52:26;;;;;;;1.45;0.75;;;17.50;99.90;;;;;;5086714;28;20199;-86
2023/07/21 06:54:58;;;;;;;2.50;0.60;;;17.50;99.90;;;;;;5070522;28;20232;-86
2023/07/21 06:57:29;;;;;;;2.70;0.60;;;17.40;99.90;;;;;;5074163;28;20223;-86
2023/07/21 07:00:00;;;;;;;4.30;1.42;;;17.40;99.90;;;;;;5078165;28;20204;-84
2023/07/21 07:02:33;;;;;;;1.95;1.05;;;17.30;99.90;;;;;;5071174;28;20206;-85
2023/07/21 07:05:04;;;;;;;3.47;0.88;;;17.30;99.90;;;;;;5082260;28;20618;-87
2023/07/21 07:07:36;;;;;;;2.25;0.80;;;17.20;99.90;;;;;;5075657;28;20250;-85
2023/07/21 07:10:07;;;;;;;1.85;0.70;;;17.20;99.90;;;;;;5092423;28;20696;-84
2023/07/21 07:12:38;;;;;;;1.67;0.40;;;17.20;99.90;;;;;;5111697;28;20187;-86
2023/07/21 07:15:10;;;;;;;2.60;0.50;;;17.20;99.90;;;;;;5098345;28;20219;-86
2023/07/21 07:17:43;;;;;;;0.70;0.50;;;17.10;99.90;;;;;;5075829;28;20206;-86
2023/07/21 07:20:15;;;;;;;1.50;0.80;;;17.10;99.90;;;;;;5074204;28;20212;-86
2023/07/21 07:22:46;;;;;;;3.70;0.50;;;17.10;99.90;;;;;;5081626;28;20200;-86
2023/07/21 07:25:18;;;;;;;1.38;0.60;;;17.10;99.90;;;;;;5074080;28;20747;-86
2023/07/21 07:27:49;;;;;;;1.65;0.70;;;17.00;99.90;;;;;;5077596;28;20242;-86
2023/07/21 07:30:22;;;;;;;1.58;0.60;;;17.00;99.90;;;;;;5094254;28;20195;-86
2023/07/21 07:32:55;;;;;;;1.45;0.65;;;17.00;99.90;;;;;;5098765;28;20302;-85
2023/07/21 07:35:26;;;;;;;0.93;0.47;;;16.90;99.90;;;;;;5103519;28;20230;-86
2023/07/21 07:37:57;;;;;;;3.45;0.80;;;16.90;99.90;;;;;;5095824;28;20210;-87
2023/07/21 07:40:28;;;;;;;1.25;0.75;;;16.90;99.90;;;;;;5094639;28;20206;-87
2023/07/21 07:42:59;;;;;;;1.48;0.60;;;16.80;99.90;;;;;;5094161;28;20205;-87
2023/07/21 07:45:33;;;;;;;2.38;0.65;;;16.80;99.90;;;;;;5095798;28;20201;-86
2023/07/21 07:48:07;;;;;;;2.92;1.42;;;16.80;99.90;;;;;;5095969;28;20206;-88
2023/07/21 07:50:41;;;;;;;2.28;1.00;;;16.80;99.90;;;;;;5085425;28;20199;-86
2023/07/21 07:53:12;;;;;;;2.97;0.93;;;16.80;99.90;;;;;;5073341;28;20272;-86
2023/07/21 07:55:43;;;;;;;3.08;0.63;;;16.70;99.90;;;;;;5091356;28;20234;-87
2023/07/21 07:58:14;;;;;;;2.20;0.80;;;16.70;99.90;;;;;;5077702;28;20722;-87
2023/07/21 08:00:45;;;;;;;2.60;0.77;;;16.60;99.90;;;;;;5076837;28;20202;-86
2023/07/21 08:03:18;;;;;;;2.97;1.27;;;16.60;99.90;;;;;;5083662;28;20218;-86
2023/07/21 08:05:50;;;;;;;7.45;2.17;;;16.60;99.90;;;;;;5103271;28;20686;-86
2023/07/21 08:08:22;;;;;;;4.22;2.10;;;16.50;99.90;;;;;;5107871;28;20544;-86
2023/07/21 08:10:54;;;;;;;2.33;1.45;;;16.50;99.90;;;;;;5113399;28;20191;-87
2023/07/21 08:13:24;;;;;;;2.83;1.88;;;16.50;99.90;;;;;;5104657;28;20204;-87
2023/07/21 08:15:55;;;;;;;3.22;1.40;;;16.50;99.90;;;;;;5086158;28;20715;-87
2023/07/21 08:18:29;;;;;;;6.63;3.00;;;16.50;99.90;;;;;;5112698;28;20564;-86
2023/07/21 08:20:59;;;;;;;2.88;1.27;;;16.40;99.90;;;;;;5100744;28;20206;-86
2023/07/21 08:23:30;;;;;;;3.65;1.60;;;16.50;99.90;;;;;;5109365;28;20191;-87
2023/07/21 08:26:05;;;;;;;3.90;1.45;;;16.40;99.90;;;;;;5105942;28;20683;-88
2023/07/21 08:28:40;;;;;;;3.00;0.85;;;16.40;99.90;;;;;;5083556;28;20215;-87
2023/07/21 08:31:11;;;;;;;3.05;0.93;;;16.40;99.90;;;;;;5081648;28;20715;-86
2023/07/21 08:33:46;;;;;;;2.30;1.27;;;16.40;99.90;;;;;;5097758;28;20614;-89
2023/07/21 08:36:17;;;;;;;6.97;1.30;;;16.50;99.90;;;;;;5106169;28;20254;-87
2023/07/21 08:38:47;;;;;;;3.10;1.20;;;16.40;99.90;;;;;;5109783;28;20205;-88
2023/07/21 08:41:22;;;;;;;2.53;1.50;;;16.40;99.90;;;;;;5099767;28;20554;-89
2023/07/21 08:43:53;;;;;;;3.10;1.58;;;16.40;99.90;;;;;;5072996;28;20570;-86
2023/07/21 08:46:25;;;;;;;2.08;1.00;;;16.40;99.90;;;;;;5099498;28;20199;-86
2023/07/21 08:48:59;;;;;;;4.57;1.30;;;16.40;99.90;;;;;;5108928;28;20197;-86
2023/07/21 08:51:30;;;;;;;3.03;1.30;;;16.40;99.90;;;;;;5097917;28;20199;-86
2023/07/21 08:54:01;;;;;;;2.83;1.40;;;16.40;99.90;;;;;;5085897;28;20230;-88
2023/07/21 08:56:32;;;;;;;4.70;2.15;;;16.40;99.90;;;;;;5092308;28;20238;-87
2023/07/21 08:59:03;;;;;;;5.22;2.10;;;16.40;99.90;;;;;;5082655;28;20224;-86
2023/07/21 09:01:34;;;;;;;4.40;1.65;;;16.40;99.90;;;;;;5085908;28;20526;-86
2023/07/21 09:04:20;;;;;;;5.75;2.20;;;16.40;99.90;;;;;;5084070;28;20654;-87
2023/07/21 09:06:55;;;;;;;4.03;2.17;;;16.30;99.90;;;;;;5092284;28;20727;-87
2023/07/21 09:09:26;;;;;;;3.50;1.90;;;16.30;99.90;;;;;;5102882;28;20198;-87
2023/07/21 09:12:03;;;;;;;19.60;7.13;;;16.30;99.90;;;;;;5099509;28;20199;-87
2023/07/21 09:14:44;;;;;;;30.48;10.93;;;16.30;99.90;;;;;;5072817;28;20217;-87
2023/07/21 09:17:16;;;;;;;22.73;8.60;;;16.30;99.90;;;;;;5079096;28;20218;-86
2023/07/21 09:19:50;;;;;;;9.38;3.50;;;16.30;99.90;;;;;;5073670;28;20203;-87
2023/07/21 09:22:27;;;;;;;9.43;4.28;;;16.30;99.90;;;;;;5083600;28;20678;-87
2023/07/21 09:24:58;;;;;;;11.60;4.70;;;16.20;99.90;;;;;;5089957;28;20223;-86
2023/07/21 09:27:28;;;;;;;23.90;10.73;;;16.20;99.90;;;;;;5085243;28;20204;-87
2023/07/21 09:30:03;;;;;;;10.23;4.90;;;16.20;99.90;;;;;;5102799;28;20206;-87
2023/07/21 09:32:42;;;;;;;8.90;3.85;;;16.20;99.90;;;;;;5097307;28;20268;-86
2023/07/21 09:35:15;;;;;;;10.73;4.05;;;16.30;99.90;;;;;;5078005;28;20211;-87
2023/07/21 09:37:51;;;;;;;4.03;2.22;;;16.20;99.90;;;;;;5078985;28;20224;-88
2023/07/21 09:40:30;;;;;;;3.45;1.80;;;16.20;99.90;;;;;;5090948;28;20187;-87
2023/07/21 09:43:02;;;;;;;7.03;3.53;;;16.20;99.90;;;;;;5100784;28;20561;-87
2023/07/21 09:45:37;;;;;;;4.30;1.95;;;16.20;99.90;;;;;;5110798;27;20255;-87
2023/07/21 09:48:08;;;;;;;10.00;2.65;;;16.20;99.90;;;;;;5088633;28;20654;-87
2023/07/21 09:50:42;;;;;;;5.63;2.72;;;16.10;99.90;;;;;;5103706;28;20203;-87
2023/07/21 09:53:15;;;;;;;14.60;5.05;;;16.10;99.90;;;;;;5092861;28;20200;-87
2023/07/21 09:55:50;;;;;;;13.38;5.50;;;16.00;99.90;;;;;;5090061;28;20221;-87
2023/07/21 09:58:24;;;;;;;23.38;7.03;;;16.00;99.90;;;;;;5101824;28;20241;-88
2023/07/21 10:01:03;;;;;;;16.95;6.68;;;16.00;99.90;;;;;;5095481;28;20195;-86
2023/07/21 10:03:35;;;;;;;13.85;5.57;;;15.90;99.90;;;;;;5103675;28;20247;-88
2023/07/21 10:06:08;;;;;;;11.32;4.95;;;15.90;99.90;;;;;;5091582;28;20199;-87
2023/07/21 10:08:41;;;;;;;10.48;4.78;;;15.90;99.90;;;;;;5092160;28;20203;-89
2023/07/21 10:11:12;;;;;;;6.97;3.30;;;15.90;99.90;;;;;;5091691;28;20203;-89
2023/07/21 10:13:48;;;;;;;6.78;2.50;;;15.80;99.90;;;;;;5074218;28;20192;-90
2023/07/21 10:16:24;;;;;;;8.55;2.60;;;15.80;99.90;;;;;;5071972;28;20721;-92
2023/07/21 10:19:12;;;;;;;12.75;7.15;;;15.60;99.90;;;;;;5072541;28;20282;-90
2023/07/21 10:21:56;;;;;;;7.65;2.88;;;15.70;99.90;;;;;;5102250;28;20198;-90
2023/07/21 10:24:28;;;;;;;4.30;2.15;;;15.70;99.90;;;;;;5096615;28;20203;-89
2023/07/21 10:26:59;;;;;;;7.78;2.70;;;15.60;99.90;;;;;;5088902;28;20192;-88
2023/07/21 10:29:30;;;;;;;9.20;2.80;;;15.60;99.90;;;;;;5092658;28;20633;-89
2023/07/21 10:32:07;;;;;;;6.18;3.03;;;15.60;99.90;;;;;;5084165;28;20283;-91
2023/07/21 10:34:43;;;;;;;5.55;3.38;;;15.40;99.90;;;;;;5089947;28;20215;-86
2023/07/21 10:37:15;;;;;;;5.10;2.90;;;15.40;99.90;;;;;;5082646;28;20227;-90
2023/07/21 10:39:56;;;;;;;12.55;5.63;;;15.40;99.90;;;;;;5072910;28;20275;-90
2023/07/21 10:42:27;;;;;;;11.25;4.75;;;15.40;99.90;;;;;;5076256;28;20647;-90
2023/07/21 10:44:58;;;;;;;9.68;4.93;;;15.30;99.90;;;;;;5077030;28;20200;-89
2023/07/21 10:47:30;;;;;;;12.95;5.30;;;15.20;99.90;;;;;;5092775;28;20535;-90
2023/07/21 10:50:03;;;;;;;8.85;4.32;;;15.20;99.90;;;;;;5075805;28;20210;-90
2023/07/21 10:52:36;;;;;;;12.40;5.88;;;15.20;99.90;;;;;;5076330;28;20215;-90
2023/07/21 10:55:07;;;;;;;9.98;4.45;;;15.20;99.90;;;;;;5078054;28;20232;-91
2023/07/21 10:57:40;;;;;;;8.88;4.68;;;15.20;99.90;;;;;;5089901;28;20228;-89
2023/07/21 11:00:12;;;;;;;7.50;3.90;;;15.10;99.90;;;;;;5078302;28;21298;-90
2023/07/21 11:02:43;;;;;;;7.80;4.00;;;15.10;99.90;;;;;;5075518;28;20196;-91
2023/07/21 11:05:14;;;;;;;6.93;4.03;;;15.10;99.90;;;;;;5074217;28;20199;-91
2023/07/21 11:07:47;;;;;;;11.43;4.65;;;15.10;99.90;;;;;;5075624;28;20223;-90
2023/07/21 11:10:19;;;;;;;6.78;3.35;;;15.20;99.90;;;;;;5074641;28;20196;-91
2023/07/21 11:12:54;;;;;;;7.10;3.40;;;15.10;99.90;;;;;;5075699;28;20188;-92
2023/07/21 11:15:25;;;;;;;6.35;3.10;;;15.10;99.90;;;;;;5075625;28;20196;-91
2023/07/21 11:18:02;;;;;;;5.35;3.08;;;15.20;99.90;;;;;;5092236;28;20211;-90
2023/07/21 11:20:33;;;;;;;6.72;3.47;;;15.20;99.90;;;;;;5095884;28;20653;-91
2023/07/21 11:23:06;;;;;;;7.85;3.15;;;15.20;99.90;;;;;;5095807;28;20277;-91
2023/07/21 11:25:37;;;;;;;5.10;2.33;;;15.20;99.90;;;;;;5123069;28;20210;-91
2023/07/21 11:28:11;;;;;;;7.40;2.97;;;15.20;99.90;;;;;;5115200;28;20201;-89
2023/07/21 11:30:43;;;;;;;4.75;2.42;;;15.30;99.90;;;;;;5103879;27;20207;-91
2023/07/21 11:33:13;;;;;;;6.10;2.60;;;15.30;99.90;;;;;;5088022;28;20196;-90
2023/07/21 11:35:51;;;;;;;6.47;2.60;;;15.20;99.90;;;;;;5078536;28;20590;-91
2023/07/21 11:38:27;;;;;;;6.43;2.50;;;15.20;99.90;;;;;;5079359;28;20220;-90
2023/07/21 11:40:58;;;;;;;6.63;2.58;;;15.20;99.90;;;;;;5094511;28;20194;-91
2023/07/21 11:43:31;;;;;;;4.93;2.40;;;15.20;99.90;;;;;;5073969;28;20187;-91
2023/07/21 11:46:02;;;;;;;6.55;2.33;;;15.20;99.90;;;;;;5075363;28;20200;-90
2023/07/21 11:48:33;;;;;;;7.88;2.58;;;15.00;99.90;;;;;;5086470;28;20198;-91
2023/07/21 11:51:08;;;;;;;6.60;2.97;;;15.10;99.90;;;;;;5088352;28;20200;-89
2023/07/21 11:53:52;;;;;;;7.82;3.08;;;15.00;99.90;;;;;;5085387;28;20201;-90
2023/07/21 11:56:23;;;;;;;7.65;2.17;;;15.00;99.90;;;;;;5074544;28;20297;-91
2023/07/21 11:58:55;;;;;;;5.53;2.20;;;15.00;99.90;;;;;;5089672;28;20210;-91
2023/07/21 12:01:28;;;;;;;3.90;1.98;;;14.90;99.90;;;;;;5083443;28;20707;-91
2023/07/21 12:03:59;;;;;;;5.63;1.95;;;14.90;99.90;;;;;;5081774;28;20210;-91
2023/07/21 12:06:29;;;;;;;3.08;1.65;;;14.90;99.90;;;;;;5088313;28;20195;-92
2023/07/21 12:09:05;;;;;;;3.97;1.58;;;14.80;99.90;;;;;;5094758;28;20581;-91
2023/07/21 12:11:36;;;;;;;4.78;1.70;;;14.80;99.90;;;;;;5112842;28;20194;-90
2023/07/21 12:14:07;;;;;;;4.97;1.80;;;14.70;99.90;;;;;;5110434;27;20201;-89
2023/07/21 12:16:39;;;;;;;2.53;1.70;;;14.70;99.90;;;;;;5100437;28;20219;-91
2023/07/21 12:19:10;;;;;;;3.63;1.70;;;14.70;99.90;;;;;;5084923;28;20194;-89
2023/07/21 12:21:41;;;;;;;3.47;1.67;;;14.60;99.90;;;;;;5078026;28;20283;-92
2023/07/21 12:24:15;;;;;;;4.07;1.92;;;14.50;99.90;;;;;;5093522;28;20224;-88
2023/07/21 12:26:47;;;;;;;4.13;1.77;;;14.40;99.90;;;;;;5094802;28;20242;-88
2023/07/21 12:29:19;;;;;;;5.15;1.70;;;14.40;99.90;;;;;;5080889;28;20195;-86
2023/07/21 12:31:50;;;;;;;4.88;1.75;;;14.40;99.90;;;;;;5093752;28;20240;-86
2023/07/21 12:34:22;;;;;;;6.97;1.75;;;14.40;99.90;;;;;;5095582;28;20204;-88
2023/07/21 12:36:53;;;;;;;2.53;1.60;;;14.40;99.90;;;;;;5075345;28;20212;-88
2023/07/21 12:39:26;;;;;;;2.85;1.40;;;14.40;99.90;;;;;;5075749;28;20214;-87
2023/07/21 12:41:58;;;;;;;4.05;1.52;;;14.40;99.90;;;;;;5078558;28;20537;-87
2023/07/21 12:44:30;;;;;;;3.60;1.35;;;14.20;99.90;;;;;;5111070;28;20187;-86
2023/07/21 12:47:00;;;;;;;4.05;1.60;;;14.10;99.90;;;;;;5091102;28;20870;-87
2023/07/21 12:49:32;;;;;;;3.83;1.30;;;14.00;99.90;;;;;;5073635;28;20192;-87
2023/07/21 12:52:04;;;;;;;2.88;1.60;;;14.10;99.90;;;;;;5073724;28;20191;-86
2023/07/21 12:54:37;;;;;;;6.05;1.42;;;14.00;99.90;;;;;;5072645;28;20311;-86
2023/07/21 12:57:12;;;;;;;1.98;1.35;;;14.10;99.90;;;;;;5080612;28;20226;-87
2023/07/21 12:59:44;;;;;;;2.13;1.58;;;14.10;99.90;;;;;;5093927;28;20221;-87
2023/07/21 13:02:15;;;;;;;2.50;1.40;;;14.00;99.90;;;;;;5079953;28;20200;-88
2023/07/21 13:04:46;;;;;;;3.13;1.45;;;14.00;99.90;;;;;;5075117;28;20210;-87
2023/07/21 13:07:17;;;;;;;4.10;1.50;;;14.00;99.90;;;;;;5075953;28;20206;-86
2023/07/21 13:09:51;;;;;;;2.90;1.40;;;14.10;99.90;;;;;;5073831;28;20200;-85
2023/07/21 13:12:22;;;;;;;2.38;1.40;;;14.00;99.90;;;;;;5073825;28;20229;-87